sensor_id;sensor_type;location;lat;lon;timestamp;P1;durP1;ratioP1;P2;durP2;ratioP2
49980;SDS011;35871;51.594;7.138;2023-05-23T05:51:04;11.52;;;7.22;;
49980;SDS011;35871;51.594;7.138;2023-05-23T05:56:05;11.98;;;7.55;;
49980;SDS011;35871;51.594;7.138;2023-05-23T06:01:08;8.80;;;5.85;;
49980;SDS011;35871;51.594;7.138;2023-05-23T06:11:10;13.52;;;6.88;;
49980;SDS011;35871;51.594;7.138;2023-05-23T06:16:11;10.10;;;5.47;;
49980;SDS011;35871;51.594;7.138;2023-05-23T06:21:12;9.23;;;6.45;;
49980;SDS011;35871;51.594;7.138;2023-05-23T06:26:13;9.95;;;5.60;;
49980;SDS011;35871;51.594;7.138;2023-05-23T06:31:14;6.60;;;4.93;;
49980;SDS011;35871;51.594;7.138;2023-05-23T06:36:15;7.68;;;5.68;;
49980;SDS011;35871;51.594;7.138;2023-05-23T06:41:16;11.43;;;5.85;;
49980;SDS011;35871;51.594;7.138;2023-05-23T06:46:17;6.10;;;4.80;;
49980;SDS011;35871;51.594;7.138;2023-05-23T06:51:18;11.32;;;6.25;;
49980;SDS011;35871;51.594;7.138;2023-05-23T06:56:19;8.55;;;5.53;;
49980;SDS011;35871;51.594;7.138;2023-05-23T07:01:21;6.00;;;3.85;;
49980;SDS011;35871;51.594;7.138;2023-05-23T07:06:22;5.45;;;4.00;;
49980;SDS011;35871;51.594;7.138;2023-05-23T07:11:23;7.32;;;4.60;;
49980;SDS011;35871;51.594;7.138;2023-05-23T07:16:25;7.45;;;4.88;;
49980;SDS011;35871;51.594;7.138;2023-05-23T07:21:26;7.18;;;5.32;;
49980;SDS011;35871;51.594;7.138;2023-05-23T07:26:27;10.18;;;6.50;;
49980;SDS011;35871;51.594;7.138;2023-05-23T07:31:28;11.82;;;8.80;;
49980;SDS011;35871;51.594;7.138;2023-05-23T07:36:29;13.43;;;9.48;;
49980;SDS011;35871;51.594;7.138;2023-05-23T07:41:32;11.30;;;8.07;;
49980;SDS011;35871;51.594;7.138;2023-05-23T07:46:34;10.60;;;6.38;;
49980;SDS011;35871;51.594;7.138;2023-05-23T07:51:35;11.90;;;8.55;;
49980;SDS011;35871;51.594;7.138;2023-05-23T07:56:41;11.80;;;7.60;;
49980;SDS011;35871;51.594;7.138;2023-05-23T08:01:52;17.52;;;12.25;;
49980;SDS011;35871;51.594;7.138;2023-05-23T08:06:54;14.00;;;11.68;;
49980;SDS011;35871;51.594;7.138;2023-05-23T08:11:55;18.48;;;9.68;;
49980;SDS011;35871;51.594;7.138;2023-05-23T08:16:55;17.92;;;12.00;;
49980;SDS011;35871;51.594;7.138;2023-05-23T08:21:56;11.65;;;7.50;;
49980;SDS011;35871;51.594;7.138;2023-05-23T08:27:00;9.30;;;6.00;;
49980;SDS011;35871;51.594;7.138;2023-05-23T08:32:01;10.43;;;6.20;;
49980;SDS011;35871;51.594;7.138;2023-05-23T08:42:38;9.07;;;5.10;;
49980;SDS011;35871;51.594;7.138;2023-05-23T08:47:43;8.82;;;5.05;;
49980;SDS011;35871;51.594;7.138;2023-05-23T08:52:54;7.07;;;4.55;;
49980;SDS011;35871;51.594;7.138;2023-05-23T08:57:56;9.07;;;5.60;;
49980;SDS011;35871;51.594;7.138;2023-05-23T09:03:00;7.35;;;4.80;;
49980;SDS011;35871;51.594;7.138;2023-05-23T09:08:02;8.18;;;5.50;;
49980;SDS011;35871;51.594;7.138;2023-05-23T09:13:03;9.55;;;4.72;;
49980;SDS011;35871;51.594;7.138;2023-05-23T09:18:04;10.52;;;5.03;;
49980;SDS011;35871;51.594;7.138;2023-05-23T09:23:05;8.43;;;4.25;;
49980;SDS011;35871;51.594;7.138;2023-05-23T09:28:06;11.25;;;5.30;;
49980;SDS011;35871;51.594;7.138;2023-05-23T09:33:09;7.88;;;5.28;;
49980;SDS011;35871;51.594;7.138;2023-05-23T09:38:11;8.10;;;4.90;;
49980;SDS011;35871;51.594;7.138;2023-05-23T09:43:13;7.82;;;4.35;;
49980;SDS011;35871;51.594;7.138;2023-05-23T09:48:17;10.00;;;5.50;;
49980;SDS011;35871;51.594;7.138;2023-05-23T09:53:18;6.95;;;4.28;;
49980;SDS011;35871;51.594;7.138;2023-05-23T09:58:22;7.40;;;4.15;;
49980;SDS011;35871;51.594;7.138;2023-05-23T10:09:41;8.82;;;5.03;;
49980;SDS011;35871;51.594;7.138;2023-05-23T10:14:44;11.85;;;5.50;;
49980;SDS011;35871;51.594;7.138;2023-05-23T10:19:51;9.05;;;6.00;;
49980;SDS011;35871;51.594;7.138;2023-05-23T10:24:58;8.43;;;3.92;;
49980;SDS011;35871;51.594;7.138;2023-05-23T10:29:59;7.93;;;3.83;;
49980;SDS011;35871;51.594;7.138;2023-05-23T10:35:24;9.82;;;4.80;;
49980;SDS011;35871;51.594;7.138;2023-05-23T10:46:13;7.73;;;3.50;;
49980;SDS011;35871;51.594;7.138;2023-05-23T10:51:15;8.00;;;4.15;;
49980;SDS011;35871;51.594;7.138;2023-05-23T10:56:20;8.45;;;4.00;;
49980;SDS011;35871;51.594;7.138;2023-05-23T11:01:26;13.02;;;6.70;;
49980;SDS011;35871;51.594;7.138;2023-05-23T11:06:40;5.87;;;3.60;;
49980;SDS011;35871;51.594;7.138;2023-05-23T11:17:15;10.60;;;3.97;;
49980;SDS011;35871;51.594;7.138;2023-05-23T11:22:17;6.55;;;3.60;;
49980;SDS011;35871;51.594;7.138;2023-05-23T11:27:25;9.98;;;3.88;;
49980;SDS011;35871;51.594;7.138;2023-05-23T11:32:27;5.35;;;2.95;;
49980;SDS011;35871;51.594;7.138;2023-05-23T11:37:30;6.25;;;2.97;;
49980;SDS011;35871;51.594;7.138;2023-05-23T11:42:31;6.35;;;3.28;;
49980;SDS011;35871;51.594;7.138;2023-05-23T11:47:32;6.50;;;3.42;;
49980;SDS011;35871;51.594;7.138;2023-05-23T11:52:40;9.18;;;3.05;;
49980;SDS011;35871;51.594;7.138;2023-05-23T11:57:41;6.30;;;2.85;;
49980;SDS011;35871;51.594;7.138;2023-05-23T12:02:43;5.22;;;3.00;;
49980;SDS011;35871;51.594;7.138;2023-05-23T12:07:47;8.07;;;3.50;;
49980;SDS011;35871;51.594;7.138;2023-05-23T12:12:49;8.80;;;3.10;;
49980;SDS011;35871;51.594;7.138;2023-05-23T12:17:52;7.15;;;3.08;;
49980;SDS011;35871;51.594;7.138;2023-05-23T12:22:53;7.60;;;3.05;;
49980;SDS011;35871;51.594;7.138;2023-05-23T12:27:56;6.55;;;2.80;;
49980;SDS011;35871;51.594;7.138;2023-05-23T12:32:57;5.93;;;2.83;;
49980;SDS011;35871;51.594;7.138;2023-05-23T12:37:58;9.20;;;3.17;;
49980;SDS011;35871;51.594;7.138;2023-05-23T12:42:59;5.50;;;2.67;;
49980;SDS011;35871;51.594;7.138;2023-05-23T12:48:06;8.57;;;3.60;;
49980;SDS011;35871;51.594;7.138;2023-05-23T12:53:07;7.47;;;3.15;;
49980;SDS011;35871;51.594;7.138;2023-05-23T12:58:09;9.07;;;3.42;;
49980;SDS011;35871;51.594;7.138;2023-05-23T13:03:10;8.45;;;3.30;;
49980;SDS011;35871;51.594;7.138;2023-05-23T13:08:11;7.88;;;3.38;;
49980;SDS011;35871;51.594;7.138;2023-05-23T13:13:12;8.90;;;3.30;;
49980;SDS011;35871;51.594;7.138;2023-05-23T13:18:13;8.38;;;3.00;;
49980;SDS011;35871;51.594;7.138;2023-05-23T13:23:14;11.40;;;3.22;;
49980;SDS011;35871;51.594;7.138;2023-05-23T13:28:15;11.48;;;3.33;;
49980;SDS011;35871;51.594;7.138;2023-05-23T13:33:16;6.13;;;2.85;;
49980;SDS011;35871;51.594;7.138;2023-05-23T13:38:17;6.75;;;3.20;;
49980;SDS011;35871;51.594;7.138;2023-05-23T13:43:18;6.97;;;3.17;;
49980;SDS011;35871;51.594;7.138;2023-05-23T13:48:20;7.25;;;2.83;;
49980;SDS011;35871;51.594;7.138;2023-05-23T13:53:21;7.35;;;2.67;;
49980;SDS011;35871;51.594;7.138;2023-05-23T13:58:22;8.38;;;3.40;;
49980;SDS011;35871;51.594;7.138;2023-05-23T14:03:23;10.30;;;4.60;;
49980;SDS011;35871;51.594;7.138;2023-05-23T14:08:24;6.30;;;2.85;;
49980;SDS011;35871;51.594;7.138;2023-05-23T14:13:25;10.27;;;4.20;;
49980;SDS011;35871;51.594;7.138;2023-05-23T14:18:26;9.05;;;3.50;;
49980;SDS011;35871;51.594;7.138;2023-05-23T14:23:27;10.48;;;4.50;;
49980;SDS011;35871;51.594;7.138;2023-05-23T14:28:28;6.82;;;2.90;;
49980;SDS011;35871;51.594;7.138;2023-05-23T14:33:30;5.82;;;2.88;;
49980;SDS011;35871;51.594;7.138;2023-05-23T14:38:31;7.03;;;2.83;;
49980;SDS011;35871;51.594;7.138;2023-05-23T14:43:32;8.35;;;2.65;;
49980;SDS011;35871;51.594;7.138;2023-05-23T14:48:33;5.32;;;2.85;;
49980;SDS011;35871;51.594;7.138;2023-05-23T14:53:34;6.60;;;2.72;;
49980;SDS011;35871;51.594;7.138;2023-05-23T14:58:36;7.30;;;3.42;;
49980;SDS011;35871;51.594;7.138;2023-05-23T15:03:40;5.63;;;3.13;;
49980;SDS011;35871;51.594;7.138;2023-05-23T15:08:42;6.57;;;2.80;;
49980;SDS011;35871;51.594;7.138;2023-05-23T15:13:46;6.80;;;2.50;;
49980;SDS011;35871;51.594;7.138;2023-05-23T15:18:48;7.40;;;2.80;;
49980;SDS011;35871;51.594;7.138;2023-05-23T15:23:49;8.10;;;2.78;;
49980;SDS011;35871;51.594;7.138;2023-05-23T15:28:50;8.38;;;2.85;;
49980;SDS011;35871;51.594;7.138;2023-05-23T15:33:51;6.70;;;2.90;;
49980;SDS011;35871;51.594;7.138;2023-05-23T15:38:52;8.82;;;2.90;;
49980;SDS011;35871;51.594;7.138;2023-05-23T15:43:53;6.72;;;2.97;;
49980;SDS011;35871;51.594;7.138;2023-05-23T15:48:54;7.43;;;3.22;;
49980;SDS011;35871;51.594;7.138;2023-05-23T15:53:58;10.55;;;4.93;;
49980;SDS011;35871;51.594;7.138;2023-05-23T15:58:59;8.27;;;3.25;;
49980;SDS011;35871;51.594;7.138;2023-05-23T16:04:00;7.88;;;2.60;;
49980;SDS011;35871;51.594;7.138;2023-05-23T16:09:01;9.30;;;2.30;;
49980;SDS011;35871;51.594;7.138;2023-05-23T16:14:02;7.53;;;2.70;;
49980;SDS011;35871;51.594;7.138;2023-05-23T16:19:03;6.70;;;2.67;;
49980;SDS011;35871;51.594;7.138;2023-05-23T16:24:05;5.50;;;2.33;;
49980;SDS011;35871;51.594;7.138;2023-05-23T16:29:06;6.10;;;2.38;;
49980;SDS011;35871;51.594;7.138;2023-05-23T16:34:07;8.80;;;2.28;;
49980;SDS011;35871;51.594;7.138;2023-05-23T16:39:08;8.18;;;2.53;;
49980;SDS011;35871;51.594;7.138;2023-05-23T16:44:09;7.88;;;2.55;;
49980;SDS011;35871;51.594;7.138;2023-05-23T16:49:10;5.10;;;2.05;;
49980;SDS011;35871;51.594;7.138;2023-05-23T16:54:11;8.10;;;3.25;;
49980;SDS011;35871;51.594;7.138;2023-05-23T16:59:12;13.05;;;6.93;;
49980;SDS011;35871;51.594;7.138;2023-05-23T17:04:13;11.10;;;3.50;;
49980;SDS011;35871;51.594;7.138;2023-05-23T17:09:14;7.13;;;3.20;;
49980;SDS011;35871;51.594;7.138;2023-05-23T17:14:16;5.65;;;2.42;;
49980;SDS011;35871;51.594;7.138;2023-05-23T17:19:17;5.72;;;2.30;;
49980;SDS011;35871;51.594;7.138;2023-05-23T17:24:19;5.88;;;2.80;;
49980;SDS011;35871;51.594;7.138;2023-05-23T17:29:20;6.45;;;2.30;;
49980;SDS011;35871;51.594;7.138;2023-05-23T17:34:21;5.78;;;2.28;;
49980;SDS011;35871;51.594;7.138;2023-05-23T17:39:22;8.25;;;2.58;;
49980;SDS011;35871;51.594;7.138;2023-05-23T17:44:23;6.95;;;2.40;;
49980;SDS011;35871;51.594;7.138;2023-05-23T17:49:24;6.95;;;2.30;;
49980;SDS011;35871;51.594;7.138;2023-05-23T17:54:25;6.78;;;2.35;;
49980;SDS011;35871;51.594;7.138;2023-05-23T17:59:26;7.03;;;2.70;;
49980;SDS011;35871;51.594;7.138;2023-05-23T18:04:28;5.30;;;2.15;;
49980;SDS011;35871;51.594;7.138;2023-05-23T18:09:29;5.72;;;2.22;;
49980;SDS011;35871;51.594;7.138;2023-05-23T18:14:30;5.85;;;2.08;;
49980;SDS011;35871;51.594;7.138;2023-05-23T18:19:32;5.80;;;2.22;;
49980;SDS011;35871;51.594;7.138;2023-05-23T18:24:33;9.90;;;2.40;;
49980;SDS011;35871;51.594;7.138;2023-05-23T18:29:34;4.22;;;2.00;;
49980;SDS011;35871;51.594;7.138;2023-05-23T18:34:35;5.38;;;2.30;;
49980;SDS011;35871;51.594;7.138;2023-05-23T18:39:36;6.38;;;2.47;;
49980;SDS011;35871;51.594;7.138;2023-05-23T18:44:38;5.28;;;1.92;;
49980;SDS011;35871;51.594;7.138;2023-05-23T18:49:39;6.55;;;2.22;;
49980;SDS011;35871;51.594;7.138;2023-05-23T18:54:40;7.55;;;2.30;;
49980;SDS011;35871;51.594;7.138;2023-05-23T18:59:42;5.07;;;2.45;;
49980;SDS011;35871;51.594;7.138;2023-05-23T19:04:43;7.20;;;2.50;;
49980;SDS011;35871;51.594;7.138;2023-05-23T19:09:44;8.65;;;2.60;;
49980;SDS011;35871;51.594;7.138;2023-05-23T19:14:45;8.20;;;2.50;;
